Rechercher aéroport 
image banner adimage banner ad
image banner ad

FQMA - Maputo / International

Situé à Maputo, Mozambique

ICAO - FQMA, IATA - MPM

Données fournies par Airmate  

Information générale

Coordonnées: S25°55'15" E32°34'22"
Élévation : 147 feet MSL.
 
Voir autres Aéroports à Maputo (city)

Données opérationnelles

Accessible au public
Heure actuelle UTC:
Heure actuelle locale:
Météo
METAR: FQMA 232200Z 12004KT 9999 BKN020 27/25 Q1008 NOSIG
TAF: TAF FQMA 231600Z 2318/2424 VRB03KT 9999 BKN020 FEW025CB TX30/2413Z TN24/2404Z BECMG 2400/2402 35008KT PROB30 TEMPO 2400/2406 5000 TSRA SCT015 FEW020CB BECMG 2406/2408 15008KT
Voir NOTAMs / SUP AIP / TFR affectant cet aéroport [VIEW]
Fréquences de communication: [VIEW]

Pistes:

Identifiant RWYQFULongueur (ft)Largeur (ft)SurfaceLDA (ft)
105577148
285577148
0529°12008148ASP
2312008148

Coordonnées de l'aéroport

Adresse: Maputo Mozambique

Vue satellite de FQMA